sensor_id;sensor_type;location;lat;lon;timestamp;temperature;humidity
13898;DHT22;7019;50.766;4.474;2022-07-29T00:00:10;17.60;99.90
13898;DHT22;7019;50.766;4.474;2022-07-29T00:02:37;17.70;99.90
13898;DHT22;7019;50.766;4.474;2022-07-29T00:05:05;17.70;99.90
13898;DHT22;7019;50.766;4.474;2022-07-29T00:07:32;17.70;99.90
13898;DHT22;7019;50.766;4.474;2022-07-29T00:09:59;17.60;99.90
13898;DHT22;7019;50.766;4.474;2022-07-29T00:12:26;17.60;99.90
13898;DHT22;7019;50.766;4.474;2022-07-29T00:14:55;17.60;99.90
13898;DHT22;7019;50.766;4.474;2022-07-29T00:17:22;17.60;99.90
13898;DHT22;7019;50.766;4.474;2022-07-29T00:19:50;17.60;99.90
13898;DHT22;7019;50.766;4.474;2022-07-29T00:22:17;17.50;99.90
13898;DHT22;7019;50.766;4.474;2022-07-29T00:24:44;17.50;99.90
13898;DHT22;7019;50.766;4.474;2022-07-29T00:27:11;17.50;99.90
13898;DHT22;7019;50.766;4.474;2022-07-29T00:29:38;17.50;99.90
13898;DHT22;7019;50.766;4.474;2022-07-29T00:32:07;17.60;99.90
13898;DHT22;7019;50.766;4.474;2022-07-29T00:34:34;17.70;99.90
13898;DHT22;7019;50.766;4.474;2022-07-29T00:37:33;17.70;99.90
13898;DHT22;7019;50.766;4.474;2022-07-29T00:40:00;17.60;99.90
13898;DHT22;7019;50.766;4.474;2022-07-29T00:42:27;17.50;99.90
13898;DHT22;7019;50.766;4.474;2022-07-29T00:44:54;17.40;99.90
13898;DHT22;7019;50.766;4.474;2022-07-29T00:47:23;17.50;99.90
13898;DHT22;7019;50.766;4.474;2022-07-29T00:49:50;17.40;99.90
13898;DHT22;7019;50.766;4.474;2022-07-29T00:52:17;17.30;99.90
13898;DHT22;7019;50.766;4.474;2022-07-29T00:54:44;17.10;99.90
13898;DHT22;7019;50.766;4.474;2022-07-29T00:57:11;17.00;99.90
13898;DHT22;7019;50.766;4.474;2022-07-29T00:59:39;17.00;99.90
13898;DHT22;7019;50.766;4.474;2022-07-29T01:02:06;17.00;99.90
13898;DHT22;7019;50.766;4.474;2022-07-29T01:04:34;16.90;99.90
13898;DHT22;7019;50.766;4.474;2022-07-29T01:07:02;16.70;99.90
13898;DHT22;7019;50.766;4.474;2022-07-29T01:09:30;16.70;99.90
13898;DHT22;7019;50.766;4.474;2022-07-29T01:11:58;16.60;99.90
13898;DHT22;7019;50.766;4.474;2022-07-29T01:14:26;16.50;99.90
13898;DHT22;7019;50.766;4.474;2022-07-29T01:16:59;16.40;99.90
13898;DHT22;7019;50.766;4.474;2022-07-29T01:19:47;16.30;99.90
13898;DHT22;7019;50.766;4.474;2022-07-29T01:22:26;16.20;99.90
13898;DHT22;7019;50.766;4.474;2022-07-29T01:25:17;16.10;99.90
13898;DHT22;7019;50.766;4.474;2022-07-29T01:28:01;16.10;99.90
13898;DHT22;7019;50.766;4.474;2022-07-29T01:30:33;16.10;99.90
13898;DHT22;7019;50.766;4.474;2022-07-29T01:33:07;16.00;99.90
13898;DHT22;7019;50.766;4.474;2022-07-29T01:35:38;16.10;99.90
13898;DHT22;7019;50.766;4.474;2022-07-29T01:38:09;16.10;99.90
13898;DHT22;7019;50.766;4.474;2022-07-29T01:40:42;16.10;99.90
13898;DHT22;7019;50.766;4.474;2022-07-29T01:43:14;16.10;99.90
13898;DHT22;7019;50.766;4.474;2022-07-29T01:45:47;16.20;99.90
13898;DHT22;7019;50.766;4.474;2022-07-29T01:48:18;16.10;99.90
13898;DHT22;7019;50.766;4.474;2022-07-29T01:50:48;16.10;99.90
13898;DHT22;7019;50.766;4.474;2022-07-29T01:53:23;16.00;99.90
13898;DHT22;7019;50.766;4.474;2022-07-29T01:55:53;15.90;99.90
13898;DHT22;7019;50.766;4.474;2022-07-29T01:58:21;15.80;99.90
13898;DHT22;7019;50.766;4.474;2022-07-29T02:00:51;15.80;99.90
13898;DHT22;7019;50.766;4.474;2022-07-29T02:03:20;15.70;99.90
13898;DHT22;7019;50.766;4.474;2022-07-29T02:05:48;15.60;99.90
13898;DHT22;7019;50.766;4.474;2022-07-29T02:08:16;15.50;99.90
13898;DHT22;7019;50.766;4.474;2022-07-29T02:10:45;15.50;99.90
13898;DHT22;7019;50.766;4.474;2022-07-29T02:13:16;15.50;99.90
13898;DHT22;7019;50.766;4.474;2022-07-29T02:15:44;15.40;99.90
13898;DHT22;7019;50.766;4.474;2022-07-29T02:18:16;15.30;99.90
13898;DHT22;7019;50.766;4.474;2022-07-29T02:20:46;15.30;99.90
13898;DHT22;7019;50.766;4.474;2022-07-29T02:23:18;15.30;99.90
13898;DHT22;7019;50.766;4.474;2022-07-29T02:25:47;15.20;99.90
13898;DHT22;7019;50.766;4.474;2022-07-29T02:28:16;15.20;99.90
13898;DHT22;7019;50.766;4.474;2022-07-29T02:30:45;15.20;99.90
13898;DHT22;7019;50.766;4.474;2022-07-29T02:33:16;15.30;99.90
13898;DHT22;7019;50.766;4.474;2022-07-29T02:35:46;15.30;99.90
13898;DHT22;7019;50.766;4.474;2022-07-29T02:38:15;15.30;99.90
13898;DHT22;7019;50.766;4.474;2022-07-29T02:41:01;15.30;99.90
13898;DHT22;7019;50.766;4.474;2022-07-29T02:43:30;15.30;99.90
13898;DHT22;7019;50.766;4.474;2022-07-29T02:45:59;15.30;99.90
13898;DHT22;7019;50.766;4.474;2022-07-29T02:48:36;15.30;99.90
13898;DHT22;7019;50.766;4.474;2022-07-29T02:51:08;15.20;99.90
13898;DHT22;7019;50.766;4.474;2022-07-29T02:53:39;15.10;99.90
13898;DHT22;7019;50.766;4.474;2022-07-29T02:56:12;15.10;99.90
13898;DHT22;7019;50.766;4.474;2022-07-29T02:58:42;15.10;99.90
13898;DHT22;7019;50.766;4.474;2022-07-29T03:01:14;15.10;99.90
13898;DHT22;7019;50.766;4.474;2022-07-29T03:03:45;15.20;99.90
13898;DHT22;7019;50.766;4.474;2022-07-29T03:06:13;15.10;99.90
13898;DHT22;7019;50.766;4.474;2022-07-29T03:08:42;15.10;99.90
13898;DHT22;7019;50.766;4.474;2022-07-29T03:11:10;15.10;99.90
13898;DHT22;7019;50.766;4.474;2022-07-29T03:13:38;15.00;99.90
13898;DHT22;7019;50.766;4.474;2022-07-29T03:16:06;15.00;99.90
13898;DHT22;7019;50.766;4.474;2022-07-29T03:18:35;14.90;99.90
13898;DHT22;7019;50.766;4.474;2022-07-29T03:21:04;15.00;99.90
13898;DHT22;7019;50.766;4.474;2022-07-29T03:23:31;14.90;99.90
13898;DHT22;7019;50.766;4.474;2022-07-29T03:25:59;14.90;99.90
13898;DHT22;7019;50.766;4.474;2022-07-29T03:28:26;14.90;99.90
13898;DHT22;7019;50.766;4.474;2022-07-29T03:30:53;14.90;99.90
13898;DHT22;7019;50.766;4.474;2022-07-29T03:33:20;14.80;99.90
13898;DHT22;7019;50.766;4.474;2022-07-29T03:35:47;14.80;99.90
13898;DHT22;7019;50.766;4.474;2022-07-29T03:38:16;14.80;99.90
13898;DHT22;7019;50.766;4.474;2022-07-29T03:40:48;14.70;99.90
13898;DHT22;7019;50.766;4.474;2022-07-29T03:43:17;14.70;99.90
13898;DHT22;7019;50.766;4.474;2022-07-29T03:45:47;14.70;99.90
13898;DHT22;7019;50.766;4.474;2022-07-29T03:48:19;14.60;99.90
13898;DHT22;7019;50.766;4.474;2022-07-29T03:50:48;14.60;99.90
13898;DHT22;7019;50.766;4.474;2022-07-29T03:53:18;14.70;99.90
13898;DHT22;7019;50.766;4.474;2022-07-29T03:55:48;14.70;99.90
13898;DHT22;7019;50.766;4.474;2022-07-29T03:58:18;14.70;99.90
13898;DHT22;7019;50.766;4.474;2022-07-29T04:00:46;14.70;99.90
13898;DHT22;7019;50.766;4.474;2022-07-29T04:03:13;14.70;99.90
13898;DHT22;7019;50.766;4.474;2022-07-29T04:05:41;14.60;99.90
13898;DHT22;7019;50.766;4.474;2022-07-29T04:08:08;14.60;99.90
13898;DHT22;7019;50.766;4.474;2022-07-29T04:10:37;14.60;99.90
13898;DHT22;7019;50.766;4.474;2022-07-29T04:13:04;14.50;99.90
13898;DHT22;7019;50.766;4.474;2022-07-29T04:15:31;14.50;99.90
13898;DHT22;7019;50.766;4.474;2022-07-29T04:17:58;14.50;99.90
13898;DHT22;7019;50.766;4.474;2022-07-29T04:20:26;14.50;99.90
13898;DHT22;7019;50.766;4.474;2022-07-29T04:22:53;14.50;99.90
13898;DHT22;7019;50.766;4.474;2022-07-29T04:25:20;14.50;99.90
13898;DHT22;7019;50.766;4.474;2022-07-29T04:27:48;14.50;99.90
13898;DHT22;7019;50.766;4.474;2022-07-29T04:30:28;14.50;99.90
13898;DHT22;7019;50.766;4.474;2022-07-29T04:32:55;14.40;99.90
13898;DHT22;7019;50.766;4.474;2022-07-29T04:35:23;14.40;99.90
13898;DHT22;7019;50.766;4.474;2022-07-29T04:37:50;14.40;99.90
13898;DHT22;7019;50.766;4.474;2022-07-29T04:40:17;14.40;99.90
13898;DHT22;7019;50.766;4.474;2022-07-29T04:42:44;14.40;99.90
13898;DHT22;7019;50.766;4.474;2022-07-29T04:45:13;14.40;99.90
13898;DHT22;7019;50.766;4.474;2022-07-29T04:47:40;14.40;99.90
13898;DHT22;7019;50.766;4.474;2022-07-29T04:50:08;14.50;99.90
13898;DHT22;7019;50.766;4.474;2022-07-29T04:52:35;14.50;99.90
13898;DHT22;7019;50.766;4.474;2022-07-29T04:55:04;14.50;99.90
13898;DHT22;7019;50.766;4.474;2022-07-29T04:57:31;14.50;99.90
13898;DHT22;7019;50.766;4.474;2022-07-29T04:59:58;14.50;99.90
13898;DHT22;7019;50.766;4.474;2022-07-29T05:02:27;14.50;99.90
13898;DHT22;7019;50.766;4.474;2022-07-29T05:04:54;14.60;99.90
13898;DHT22;7019;50.766;4.474;2022-07-29T05:07:21;14.60;99.90
13898;DHT22;7019;50.766;4.474;2022-07-29T05:09:48;14.60;99.90
13898;DHT22;7019;50.766;4.474;2022-07-29T05:12:15;14.60;99.90
13898;DHT22;7019;50.766;4.474;2022-07-29T05:14:42;14.70;99.90
13898;DHT22;7019;50.766;4.474;2022-07-29T05:17:09;14.80;99.90
13898;DHT22;7019;50.766;4.474;2022-07-29T05:19:38;14.80;99.90
13898;DHT22;7019;50.766;4.474;2022-07-29T05:22:05;14.90;99.90
13898;DHT22;7019;50.766;4.474;2022-07-29T05:24:32;14.90;99.90
13898;DHT22;7019;50.766;4.474;2022-07-29T05:26:59;14.90;99.90
13898;DHT22;7019;50.766;4.474;2022-07-29T05:29:26;14.90;99.90
13898;DHT22;7019;50.766;4.474;2022-07-29T05:31:53;15.00;99.90
13898;DHT22;7019;50.766;4.474;2022-07-29T05:34:20;15.10;99.90
13898;DHT22;7019;50.766;4.474;2022-07-29T05:36:49;15.10;99.90
13898;DHT22;7019;50.766;4.474;2022-07-29T05:39:16;15.20;99.90
13898;DHT22;7019;50.766;4.474;2022-07-29T05:41:43;15.30;99.90
13898;DHT22;7019;50.766;4.474;2022-07-29T05:44:10;15.30;99.90
13898;DHT22;7019;50.766;4.474;2022-07-29T05:46:38;15.40;99.90
13898;DHT22;7019;50.766;4.474;2022-07-29T05:49:06;15.50;99.90
13898;DHT22;7019;50.766;4.474;2022-07-29T05:51:33;15.60;99.90
13898;DHT22;7019;50.766;4.474;2022-07-29T05:54:01;15.70;99.90
13898;DHT22;7019;50.766;4.474;2022-07-29T05:56:29;15.70;99.90
13898;DHT22;7019;50.766;4.474;2022-07-29T05:58:56;15.90;99.90
13898;DHT22;7019;50.766;4.474;2022-07-29T06:01:24;15.90;99.90
13898;DHT22;7019;50.766;4.474;2022-07-29T06:03:51;16.00;99.90
13898;DHT22;7019;50.766;4.474;2022-07-29T06:06:18;16.20;99.90
13898;DHT22;7019;50.766;4.474;2022-07-29T06:08:46;16.30;99.90
13898;DHT22;7019;50.766;4.474;2022-07-29T06:11:14;16.40;99.90
13898;DHT22;7019;50.766;4.474;2022-07-29T06:13:41;16.60;99.90
13898;DHT22;7019;50.766;4.474;2022-07-29T06:16:08;16.80;99.90
13898;DHT22;7019;50.766;4.474;2022-07-29T06:18:35;16.90;99.90
13898;DHT22;7019;50.766;4.474;2022-07-29T06:21:08;17.20;99.90
13898;DHT22;7019;50.766;4.474;2022-07-29T06:23:36;17.40;99.90
13898;DHT22;7019;50.766;4.474;2022-07-29T06:26:04;17.70;99.90
13898;DHT22;7019;50.766;4.474;2022-07-29T06:28:33;18.10;99.90
13898;DHT22;7019;50.766;4.474;2022-07-29T06:31:00;18.80;99.90
13898;DHT22;7019;50.766;4.474;2022-07-29T06:33:27;19.80;99.90
13898;DHT22;7019;50.766;4.474;2022-07-29T06:35:54;20.50;99.90
13898;DHT22;7019;50.766;4.474;2022-07-29T06:38:22;21.10;99.90
13898;DHT22;7019;50.766;4.474;2022-07-29T06:40:49;21.50;99.90
13898;DHT22;7019;50.766;4.474;2022-07-29T06:43:30;21.90;99.90
13898;DHT22;7019;50.766;4.474;2022-07-29T06:46:02;22.20;99.90
13898;DHT22;7019;50.766;4.474;2022-07-29T06:48:29;22.50;99.90
13898;DHT22;7019;50.766;4.474;2022-07-29T06:50:56;22.70;99.90
13898;DHT22;7019;50.766;4.474;2022-07-29T06:53:24;23.30;99.90
13898;DHT22;7019;50.766;4.474;2022-07-29T06:55:52;23.80;99.90
13898;DHT22;7019;50.766;4.474;2022-07-29T06:58:19;23.90;99.90
13898;DHT22;7019;50.766;4.474;2022-07-29T07:00:47;24.00;99.90
13898;DHT22;7019;50.766;4.474;2022-07-29T07:03:16;24.20;99.90
13898;DHT22;7019;50.766;4.474;2022-07-29T07:05:44;24.20;99.90
13898;DHT22;7019;50.766;4.474;2022-07-29T07:08:12;24.30;99.90
13898;DHT22;7019;50.766;4.474;2022-07-29T07:10:39;24.40;99.70
13898;DHT22;7019;50.766;4.474;2022-07-29T07:13:06;24.80;99.90
13898;DHT22;7019;50.766;4.474;2022-07-29T07:15:35;25.30;99.80
13898;DHT22;7019;50.766;4.474;2022-07-29T07:18:02;25.70;99.50
13898;DHT22;7019;50.766;4.474;2022-07-29T07:20:31;25.80;98.40
13898;DHT22;7019;50.766;4.474;2022-07-29T07:22:58;26.10;98.90
13898;DHT22;7019;50.766;4.474;2022-07-29T07:25:25;26.40;98.10
13898;DHT22;7019;50.766;4.474;2022-07-29T07:27:53;26.50;97.50
13898;DHT22;7019;50.766;4.474;2022-07-29T07:30:20;26.60;97.40
13898;DHT22;7019;50.766;4.474;2022-07-29T07:32:47;26.70;97.20
13898;DHT22;7019;50.766;4.474;2022-07-29T07:35:14;26.80;97.80
13898;DHT22;7019;50.766;4.474;2022-07-29T07:37:43;27.00;97.50
13898;DHT22;7019;50.766;4.474;2022-07-29T07:40:11;27.30;97.40
13898;DHT22;7019;50.766;4.474;2022-07-29T07:42:39;27.60;97.40
13898;DHT22;7019;50.766;4.474;2022-07-29T07:45:07;27.70;96.80
13898;DHT22;7019;50.766;4.474;2022-07-29T07:47:35;27.90;96.80
13898;DHT22;7019;50.766;4.474;2022-07-29T07:50:04;28.10;95.70
13898;DHT22;7019;50.766;4.474;2022-07-29T07:52:31;28.20;95.90
13898;DHT22;7019;50.766;4.474;2022-07-29T07:55:00;28.20;95.60
13898;DHT22;7019;50.766;4.474;2022-07-29T07:57:27;28.40;95.10
13898;DHT22;7019;50.766;4.474;2022-07-29T07:59:55;28.20;94.50
13898;DHT22;7019;50.766;4.474;2022-07-29T08:02:22;28.10;94.70
13898;DHT22;7019;50.766;4.474;2022-07-29T08:04:49;27.90;95.00
13898;DHT22;7019;50.766;4.474;2022-07-29T08:07:16;27.90;95.00
13898;DHT22;7019;50.766;4.474;2022-07-29T08:09:43;28.00;94.60
13898;DHT22;7019;50.766;4.474;2022-07-29T08:12:12;28.10;95.00
13898;DHT22;7019;50.766;4.474;2022-07-29T08:14:39;28.30;95.20
13898;DHT22;7019;50.766;4.474;2022-07-29T08:17:06;28.60;94.70
13898;DHT22;7019;50.766;4.474;2022-07-29T08:19:33;28.90;94.80
13898;DHT22;7019;50.766;4.474;2022-07-29T08:22:00;29.10;94.60
13898;DHT22;7019;50.766;4.474;2022-07-29T08:24:27;29.10;93.70
13898;DHT22;7019;50.766;4.474;2022-07-29T08:27:19;29.40;93.30
13898;DHT22;7019;50.766;4.474;2022-07-29T08:29:47;29.60;93.70
13898;DHT22;7019;50.766;4.474;2022-07-29T08:32:14;29.30;93.30
13898;DHT22;7019;50.766;4.474;2022-07-29T08:34:41;29.40;92.90
13898;DHT22;7019;50.766;4.474;2022-07-29T08:37:10;28.70;93.20
13898;DHT22;7019;50.766;4.474;2022-07-29T08:39:37;28.70;94.00
13898;DHT22;7019;50.766;4.474;2022-07-29T08:42:05;29.10;94.40
13898;DHT22;7019;50.766;4.474;2022-07-29T08:44:35;29.60;93.30
13898;DHT22;7019;50.766;4.474;2022-07-29T08:47:02;29.90;92.80
13898;DHT22;7019;50.766;4.474;2022-07-29T08:49:30;29.80;92.00
13898;DHT22;7019;50.766;4.474;2022-07-29T08:52:00;29.70;92.90
13898;DHT22;7019;50.766;4.474;2022-07-29T08:54:28;29.90;92.20
13898;DHT22;7019;50.766;4.474;2022-07-29T08:56:56;30.10;92.30
13898;DHT22;7019;50.766;4.474;2022-07-29T08:59:26;30.40;91.70
13898;DHT22;7019;50.766;4.474;2022-07-29T09:01:57;30.40;91.60
13898;DHT22;7019;50.766;4.474;2022-07-29T09:04:29;30.70;92.10
13898;DHT22;7019;50.766;4.474;2022-07-29T09:07:00;30.80;91.50
13898;DHT22;7019;50.766;4.474;2022-07-29T09:09:32;30.70;91.00
13898;DHT22;7019;50.766;4.474;2022-07-29T09:12:00;30.60;91.30
13898;DHT22;7019;50.766;4.474;2022-07-29T09:14:29;30.50;90.30
13898;DHT22;7019;50.766;4.474;2022-07-29T09:16:58;30.30;91.40
13898;DHT22;7019;50.766;4.474;2022-07-29T09:19:27;30.10;90.10
13898;DHT22;7019;50.766;4.474;2022-07-29T09:21:56;30.10;90.60
13898;DHT22;7019;50.766;4.474;2022-07-29T09:24:25;30.30;90.30
13898;DHT22;7019;50.766;4.474;2022-07-29T09:26:53;30.60;91.10
13898;DHT22;7019;50.766;4.474;2022-07-29T09:29:22;30.50;89.90
13898;DHT22;7019;50.766;4.474;2022-07-29T09:31:52;30.00;90.00
13898;DHT22;7019;50.766;4.474;2022-07-29T09:34:24;30.00;91.10
13898;DHT22;7019;50.766;4.474;2022-07-29T09:36:53;30.20;91.70
13898;DHT22;7019;50.766;4.474;2022-07-29T09:39:29;30.30;91.30
13898;DHT22;7019;50.766;4.474;2022-07-29T09:41:58;30.10;89.80
13898;DHT22;7019;50.766;4.474;2022-07-29T09:44:26;30.10;90.50
13898;DHT22;7019;50.766;4.474;2022-07-29T09:46:57;30.50;92.00
13898;DHT22;7019;50.766;4.474;2022-07-29T09:49:29;30.80;92.20
13898;DHT22;7019;50.766;4.474;2022-07-29T09:52:04;30.90;90.90
13898;DHT22;7019;50.766;4.474;2022-07-29T09:54:31;30.80;90.10
13898;DHT22;7019;50.766;4.474;2022-07-29T09:57:03;30.80;90.50
13898;DHT22;7019;50.766;4.474;2022-07-29T09:59:31;30.90;90.40
13898;DHT22;7019;50.766;4.474;2022-07-29T10:01:58;30.90;90.10
13898;DHT22;7019;50.766;4.474;2022-07-29T10:04:38;30.80;90.40
13898;DHT22;7019;50.766;4.474;2022-07-29T10:07:05;30.60;89.60
13898;DHT22;7019;50.766;4.474;2022-07-29T10:09:33;30.70;88.90
13898;DHT22;7019;50.766;4.474;2022-07-29T10:12:06;30.20;90.20
13898;DHT22;7019;50.766;4.474;2022-07-29T10:14:35;30.30;91.00
13898;DHT22;7019;50.766;4.474;2022-07-29T10:17:04;30.50;90.90
13898;DHT22;7019;50.766;4.474;2022-07-29T10:19:32;30.70;90.70
13898;DHT22;7019;50.766;4.474;2022-07-29T10:22:02;30.90;90.80
13898;DHT22;7019;50.766;4.474;2022-07-29T10:24:30;30.20;90.50
13898;DHT22;7019;50.766;4.474;2022-07-29T10:26:59;30.30;90.20
13898;DHT22;7019;50.766;4.474;2022-07-29T10:29:26;30.30;89.60
13898;DHT22;7019;50.766;4.474;2022-07-29T10:32:06;30.00;90.30
13898;DHT22;7019;50.766;4.474;2022-07-29T10:34:44;30.10;91.00
13898;DHT22;7019;50.766;4.474;2022-07-29T10:37:24;30.50;92.30
13898;DHT22;7019;50.766;4.474;2022-07-29T10:39:59;30.40;90.30
13898;DHT22;7019;50.766;4.474;2022-07-29T10:42:47;30.40;91.20
13898;DHT22;7019;50.766;4.474;2022-07-29T10:45:17;30.00;90.20
13898;DHT22;7019;50.766;4.474;2022-07-29T10:47:45;30.10;90.20
13898;DHT22;7019;50.766;4.474;2022-07-29T10:50:12;30.40;90.60
13898;DHT22;7019;50.766;4.474;2022-07-29T10:52:56;29.90;90.50
13898;DHT22;7019;50.766;4.474;2022-07-29T10:55:34;30.10;90.40
13898;DHT22;7019;50.766;4.474;2022-07-29T10:58:14;30.30;90.80
13898;DHT22;7019;50.766;4.474;2022-07-29T11:00:42;30.30;90.20
13898;DHT22;7019;50.766;4.474;2022-07-29T11:03:10;30.10;89.10
13898;DHT22;7019;50.766;4.474;2022-07-29T11:05:57;30.00;90.50
13898;DHT22;7019;50.766;4.474;2022-07-29T11:08:26;29.80;88.50
13898;DHT22;7019;50.766;4.474;2022-07-29T11:14:04;29.90;89.10
13898;DHT22;7019;50.766;4.474;2022-07-29T11:16:59;30.30;90.40
13898;DHT22;7019;50.766;4.474;2022-07-29T11:19:28;30.40;90.30
13898;DHT22;7019;50.766;4.474;2022-07-29T11:21:55;30.50;90.00
13898;DHT22;7019;50.766;4.474;2022-07-29T11:24:26;30.10;88.40
13898;DHT22;7019;50.766;4.474;2022-07-29T11:27:14;29.90;89.20
13898;DHT22;7019;50.766;4.474;2022-07-29T11:29:53;29.70;88.80
13898;DHT22;7019;50.766;4.474;2022-07-29T11:32:22;29.10;88.00
13898;DHT22;7019;50.766;4.474;2022-07-29T11:35:11;28.70;90.90
13898;DHT22;7019;50.766;4.474;2022-07-29T11:37:38;28.30;90.00
13898;DHT22;7019;50.766;4.474;2022-07-29T11:40:15;28.80;90.10
13898;DHT22;7019;50.766;4.474;2022-07-29T11:42:51;29.60;90.40
13898;DHT22;7019;50.766;4.474;2022-07-29T11:45:24;30.20;90.50
13898;DHT22;7019;50.766;4.474;2022-07-29T11:47:56;30.60;88.30
13898;DHT22;7019;50.766;4.474;2022-07-29T11:50:33;31.10;88.00
13898;DHT22;7019;50.766;4.474;2022-07-29T11:53:01;31.00;89.60
13898;DHT22;7019;50.766;4.474;2022-07-29T11:55:30;30.70;87.20
13898;DHT22;7019;50.766;4.474;2022-07-29T11:58:01;30.70;89.50
13898;DHT22;7019;50.766;4.474;2022-07-29T12:00:34;30.30;90.40
13898;DHT22;7019;50.766;4.474;2022-07-29T12:03:05;30.40;89.80
13898;DHT22;7019;50.766;4.474;2022-07-29T12:05:36;30.30;87.70
13898;DHT22;7019;50.766;4.474;2022-07-29T12:08:07;30.20;91.00
13898;DHT22;7019;50.766;4.474;2022-07-29T12:10:37;30.30;88.90
13898;DHT22;7019;50.766;4.474;2022-07-29T12:13:05;30.80;89.70
13898;DHT22;7019;50.766;4.474;2022-07-29T12:15:32;31.20;87.50
13898;DHT22;7019;50.766;4.474;2022-07-29T12:18:10;31.30;84.90
13898;DHT22;7019;50.766;4.474;2022-07-29T12:20:37;31.30;85.20
13898;DHT22;7019;50.766;4.474;2022-07-29T12:23:08;31.00;86.10
13898;DHT22;7019;50.766;4.474;2022-07-29T12:25:40;30.60;86.00
13898;DHT22;7019;50.766;4.474;2022-07-29T12:28:09;30.30;88.40
13898;DHT22;7019;50.766;4.474;2022-07-29T12:30:41;30.40;85.80
13898;DHT22;7019;50.766;4.474;2022-07-29T12:33:14;30.40;85.50
13898;DHT22;7019;50.766;4.474;2022-07-29T12:35:43;30.50;87.10
13898;DHT22;7019;50.766;4.474;2022-07-29T12:38:11;30.30;86.90
13898;DHT22;7019;50.766;4.474;2022-07-29T12:40:41;30.30;85.20
13898;DHT22;7019;50.766;4.474;2022-07-29T12:43:10;30.60;86.30
13898;DHT22;7019;50.766;4.474;2022-07-29T12:45:38;30.90;85.70
13898;DHT22;7019;50.766;4.474;2022-07-29T12:48:06;30.90;84.00
13898;DHT22;7019;50.766;4.474;2022-07-29T12:50:35;30.40;81.80
13898;DHT22;7019;50.766;4.474;2022-07-29T12:53:10;29.50;88.20
13898;DHT22;7019;50.766;4.474;2022-07-29T12:55:44;29.70;87.70
13898;DHT22;7019;50.766;4.474;2022-07-29T12:58:25;29.40;86.00
13898;DHT22;7019;50.766;4.474;2022-07-29T13:01:01;29.90;89.30
13898;DHT22;7019;50.766;4.474;2022-07-29T13:03:29;29.60;85.00
13898;DHT22;7019;50.766;4.474;2022-07-29T13:06:27;29.40;86.00
13898;DHT22;7019;50.766;4.474;2022-07-29T13:09:07;29.00;85.10
13898;DHT22;7019;50.766;4.474;2022-07-29T13:11:37;29.20;87.00
13898;DHT22;7019;50.766;4.474;2022-07-29T13:14:05;29.70;87.30
13898;DHT22;7019;50.766;4.474;2022-07-29T13:16:34;29.70;87.40
13898;DHT22;7019;50.766;4.474;2022-07-29T13:19:09;29.10;83.20
13898;DHT22;7019;50.766;4.474;2022-07-29T13:21:38;29.00;90.10
13898;DHT22;7019;50.766;4.474;2022-07-29T13:24:06;28.60;85.70
13898;DHT22;7019;50.766;4.474;2022-07-29T13:26:36;28.40;87.00
13898;DHT22;7019;50.766;4.474;2022-07-29T13:29:06;28.60;88.40
13898;DHT22;7019;50.766;4.474;2022-07-29T13:31:33;29.00;90.40
13898;DHT22;7019;50.766;4.474;2022-07-29T13:34:00;29.40;88.50
13898;DHT22;7019;50.766;4.474;2022-07-29T13:36:27;29.30;89.50
13898;DHT22;7019;50.766;4.474;2022-07-29T13:38:54;28.90;88.00
13898;DHT22;7019;50.766;4.474;2022-07-29T13:41:21;28.60;88.00
13898;DHT22;7019;50.766;4.474;2022-07-29T13:43:50;28.20;88.20
13898;DHT22;7019;50.766;4.474;2022-07-29T13:46:17;28.10;88.10
13898;DHT22;7019;50.766;4.474;2022-07-29T13:48:44;28.10;88.80
13898;DHT22;7019;50.766;4.474;2022-07-29T13:51:11;28.00;90.00
13898;DHT22;7019;50.766;4.474;2022-07-29T13:53:38;28.20;90.70
13898;DHT22;7019;50.766;4.474;2022-07-29T13:56:05;28.30;90.20
13898;DHT22;7019;50.766;4.474;2022-07-29T13:58:32;28.70;89.50
13898;DHT22;7019;50.766;4.474;2022-07-29T14:01:01;29.00;88.50
13898;DHT22;7019;50.766;4.474;2022-07-29T14:03:28;29.00;89.00
13898;DHT22;7019;50.766;4.474;2022-07-29T14:05:56;28.70;87.20
13898;DHT22;7019;50.766;4.474;2022-07-29T14:08:25;28.70;87.40
13898;DHT22;7019;50.766;4.474;2022-07-29T14:10:52;29.10;87.90
13898;DHT22;7019;50.766;4.474;2022-07-29T14:13:19;29.60;87.60
13898;DHT22;7019;50.766;4.474;2022-07-29T14:15:47;30.10;89.50
13898;DHT22;7019;50.766;4.474;2022-07-29T14:18:15;30.50;89.40
13898;DHT22;7019;50.766;4.474;2022-07-29T14:20:42;30.30;84.50
13898;DHT22;7019;50.766;4.474;2022-07-29T14:23:09;30.50;86.60
13898;DHT22;7019;50.766;4.474;2022-07-29T14:25:36;30.60;84.30
13898;DHT22;7019;50.766;4.474;2022-07-29T14:28:03;30.70;85.00
13898;DHT22;7019;50.766;4.474;2022-07-29T14:30:31;30.80;84.40
13898;DHT22;7019;50.766;4.474;2022-07-29T14:32:58;31.00;88.10
13898;DHT22;7019;50.766;4.474;2022-07-29T14:35:26;31.00;84.60
13898;DHT22;7019;50.766;4.474;2022-07-29T14:37:54;30.80;85.00
13898;DHT22;7019;50.766;4.474;2022-07-29T14:40:21;30.80;83.50
13898;DHT22;7019;50.766;4.474;2022-07-29T14:42:48;30.90;84.60
13898;DHT22;7019;50.766;4.474;2022-07-29T14:45:15;30.80;83.70
13898;DHT22;7019;50.766;4.474;2022-07-29T14:47:42;30.60;84.10
13898;DHT22;7019;50.766;4.474;2022-07-29T14:50:09;30.30;82.10
13898;DHT22;7019;50.766;4.474;2022-07-29T14:52:37;30.20;83.30
13898;DHT22;7019;50.766;4.474;2022-07-29T14:55:05;30.10;85.30
13898;DHT22;7019;50.766;4.474;2022-07-29T14:57:33;29.10;83.40
13898;DHT22;7019;50.766;4.474;2022-07-29T15:00:00;28.90;86.60
13898;DHT22;7019;50.766;4.474;2022-07-29T15:02:28;28.80;83.00
13898;DHT22;7019;50.766;4.474;2022-07-29T15:04:55;28.70;82.30
13898;DHT22;7019;50.766;4.474;2022-07-29T15:07:22;29.00;84.10
13898;DHT22;7019;50.766;4.474;2022-07-29T15:09:50;29.40;84.70
13898;DHT22;7019;50.766;4.474;2022-07-29T15:12:17;29.70;83.70
13898;DHT22;7019;50.766;4.474;2022-07-29T15:14:44;29.80;84.10
13898;DHT22;7019;50.766;4.474;2022-07-29T15:17:11;29.70;81.90
13898;DHT22;7019;50.766;4.474;2022-07-29T15:19:39;29.50;82.40
13898;DHT22;7019;50.766;4.474;2022-07-29T15:22:06;29.20;82.60
13898;DHT22;7019;50.766;4.474;2022-07-29T15:24:33;28.90;86.00
13898;DHT22;7019;50.766;4.474;2022-07-29T15:27:01;28.60;86.60
13898;DHT22;7019;50.766;4.474;2022-07-29T15:29:28;28.60;82.40
13898;DHT22;7019;50.766;4.474;2022-07-29T15:31:55;28.60;84.10
13898;DHT22;7019;50.766;4.474;2022-07-29T15:34:22;28.90;84.60
13898;DHT22;7019;50.766;4.474;2022-07-29T15:36:50;29.20;82.90
13898;DHT22;7019;50.766;4.474;2022-07-29T15:39:17;29.50;84.10
13898;DHT22;7019;50.766;4.474;2022-07-29T15:41:44;29.70;82.60
13898;DHT22;7019;50.766;4.474;2022-07-29T15:44:13;29.50;81.60
13898;DHT22;7019;50.766;4.474;2022-07-29T15:46:40;29.60;85.80
13898;DHT22;7019;50.766;4.474;2022-07-29T15:49:24;29.40;82.50
13898;DHT22;7019;50.766;4.474;2022-07-29T15:51:57;29.20;84.70
13898;DHT22;7019;50.766;4.474;2022-07-29T15:54:24;29.00;85.00
13898;DHT22;7019;50.766;4.474;2022-07-29T15:56:52;28.70;85.10
13898;DHT22;7019;50.766;4.474;2022-07-29T15:59:21;28.40;86.10
13898;DHT22;7019;50.766;4.474;2022-07-29T16:01:48;27.90;85.30